sensor_id;sensor_type;location;lat;lon;timestamp;P1;durP1;ratioP1;P2;durP2;ratioP2
37205;SDS011;23099;42.636;23.198;2023-09-19T00:00:55;14.07;;;9.15;;
37205;SDS011;23099;42.636;23.198;2023-09-19T00:03:24;13.77;;;8.75;;
37205;SDS011;23099;42.636;23.198;2023-09-19T00:05:51;16.25;;;9.55;;
37205;SDS011;23099;42.636;23.198;2023-09-19T00:08:18;14.93;;;9.15;;
37205;SDS011;23099;42.636;23.198;2023-09-19T00:10:48;13.18;;;8.85;;
37205;SDS011;23099;42.636;23.198;2023-09-19T00:13:15;13.55;;;8.68;;
37205;SDS011;23099;42.636;23.198;2023-09-19T00:15:42;10.75;;;7.45;;
37205;SDS011;23099;42.636;23.198;2023-09-19T00:18:13;13.90;;;8.60;;
37205;SDS011;23099;42.636;23.198;2023-09-19T00:20:43;12.50;;;8.20;;
37205;SDS011;23099;42.636;23.198;2023-09-19T00:23:12;13.27;;;8.65;;
37205;SDS011;23099;42.636;23.198;2023-09-19T00:25:39;14.23;;;8.45;;
37205;SDS011;23099;42.636;23.198;2023-09-19T00:28:07;11.80;;;7.88;;
37205;SDS011;23099;42.636;23.198;2023-09-19T00:30:34;13.73;;;8.20;;
37205;SDS011;23099;42.636;23.198;2023-09-19T00:33:03;16.27;;;8.55;;
37205;SDS011;23099;42.636;23.198;2023-09-19T00:35:32;11.15;;;7.15;;
37205;SDS011;23099;42.636;23.198;2023-09-19T00:38:00;11.90;;;7.45;;
37205;SDS011;23099;42.636;23.198;2023-09-19T00:40:28;11.57;;;7.22;;
37205;SDS011;23099;42.636;23.198;2023-09-19T00:42:57;12.93;;;7.10;;
37205;SDS011;23099;42.636;23.198;2023-09-19T00:45:25;11.95;;;7.30;;
37205;SDS011;23099;42.636;23.198;2023-09-19T00:47:53;13.80;;;7.85;;
37205;SDS011;23099;42.636;23.198;2023-09-19T00:50:21;12.57;;;7.53;;
37205;SDS011;23099;42.636;23.198;2023-09-19T00:52:52;12.98;;;6.75;;
37205;SDS011;23099;42.636;23.198;2023-09-19T00:55:22;11.30;;;7.30;;
37205;SDS011;23099;42.636;23.198;2023-09-19T00:57:50;16.63;;;7.88;;
37205;SDS011;23099;42.636;23.198;2023-09-19T01:00:17;12.05;;;7.47;;
37205;SDS011;23099;42.636;23.198;2023-09-19T01:02:45;13.88;;;8.75;;
37205;SDS011;23099;42.636;23.198;2023-09-19T01:05:12;11.00;;;8.30;;
37205;SDS011;23099;42.636;23.198;2023-09-19T01:07:39;13.13;;;8.38;;
37205;SDS011;23099;42.636;23.198;2023-09-19T01:10:06;12.25;;;7.38;;
37205;SDS011;23099;42.636;23.198;2023-09-19T01:12:41;12.43;;;7.85;;
37205;SDS011;23099;42.636;23.198;2023-09-19T01:15:15;13.45;;;8.48;;
37205;SDS011;23099;42.636;23.198;2023-09-19T01:17:53;13.00;;;8.60;;
37205;SDS011;23099;42.636;23.198;2023-09-19T01:20:29;13.38;;;8.35;;
37205;SDS011;23099;42.636;23.198;2023-09-19T01:23:06;12.68;;;7.80;;
37205;SDS011;23099;42.636;23.198;2023-09-19T01:28:50;13.20;;;8.40;;
37205;SDS011;23099;42.636;23.198;2023-09-19T01:31:22;10.27;;;7.25;;
37205;SDS011;23099;42.636;23.198;2023-09-19T01:33:53;13.40;;;7.55;;
37205;SDS011;23099;42.636;23.198;2023-09-19T01:36:25;12.35;;;7.88;;
37205;SDS011;23099;42.636;23.198;2023-09-19T01:38:54;12.45;;;8.48;;
37205;SDS011;23099;42.636;23.198;2023-09-19T01:41:23;16.73;;;8.70;;
37205;SDS011;23099;42.636;23.198;2023-09-19T01:43:56;15.38;;;8.40;;
37205;SDS011;23099;42.636;23.198;2023-09-19T01:46:29;12.65;;;8.32;;
37205;SDS011;23099;42.636;23.198;2023-09-19T01:49:04;12.75;;;7.90;;
37205;SDS011;23099;42.636;23.198;2023-09-19T01:51:44;13.25;;;8.30;;
37205;SDS011;23099;42.636;23.198;2023-09-19T01:54:18;12.52;;;7.88;;
37205;SDS011;23099;42.636;23.198;2023-09-19T01:56:54;13.30;;;7.88;;
37205;SDS011;23099;42.636;23.198;2023-09-19T01:59:31;12.35;;;8.35;;
37205;SDS011;23099;42.636;23.198;2023-09-19T02:02:04;13.65;;;8.50;;
37205;SDS011;23099;42.636;23.198;2023-09-19T02:04:33;11.90;;;8.32;;
37205;SDS011;23099;42.636;23.198;2023-09-19T02:07:01;13.27;;;8.47;;
37205;SDS011;23099;42.636;23.198;2023-09-19T02:09:30;11.77;;;8.18;;
37205;SDS011;23099;42.636;23.198;2023-09-19T02:11:58;14.57;;;8.35;;
37205;SDS011;23099;42.636;23.198;2023-09-19T02:14:25;12.70;;;8.52;;
37205;SDS011;23099;42.636;23.198;2023-09-19T02:16:52;16.23;;;8.55;;
37205;SDS011;23099;42.636;23.198;2023-09-19T02:19:21;13.25;;;8.57;;
37205;SDS011;23099;42.636;23.198;2023-09-19T02:21:47;10.48;;;7.20;;
37205;SDS011;23099;42.636;23.198;2023-09-19T02:24:15;12.18;;;7.80;;
37205;SDS011;23099;42.636;23.198;2023-09-19T02:26:41;13.63;;;7.88;;
37205;SDS011;23099;42.636;23.198;2023-09-19T02:29:09;16.00;;;8.93;;
37205;SDS011;23099;42.636;23.198;2023-09-19T02:31:37;12.02;;;8.45;;
37205;SDS011;23099;42.636;23.198;2023-09-19T02:34:05;13.73;;;8.57;;
37205;SDS011;23099;42.636;23.198;2023-09-19T02:36:35;14.48;;;8.73;;
37205;SDS011;23099;42.636;23.198;2023-09-19T02:39:02;17.00;;;8.98;;
37205;SDS011;23099;42.636;23.198;2023-09-19T02:43:58;13.70;;;8.47;;
37205;SDS011;23099;42.636;23.198;2023-09-19T02:46:26;13.60;;;7.68;;
37205;SDS011;23099;42.636;23.198;2023-09-19T02:48:53;15.05;;;8.75;;
37205;SDS011;23099;42.636;23.198;2023-09-19T02:51:21;12.93;;;8.17;;
37205;SDS011;23099;42.636;23.198;2023-09-19T02:53:49;12.05;;;8.13;;
37205;SDS011;23099;42.636;23.198;2023-09-19T02:56:17;15.02;;;8.73;;
37205;SDS011;23099;42.636;23.198;2023-09-19T02:58:44;13.02;;;7.85;;
37205;SDS011;23099;42.636;23.198;2023-09-19T03:01:11;12.60;;;7.63;;
37205;SDS011;23099;42.636;23.198;2023-09-19T03:03:37;13.25;;;7.85;;
37205;SDS011;23099;42.636;23.198;2023-09-19T03:06:06;12.07;;;7.45;;
37205;SDS011;23099;42.636;23.198;2023-09-19T03:08:34;12.82;;;7.97;;
37205;SDS011;23099;42.636;23.198;2023-09-19T03:11:04;12.27;;;7.82;;
37205;SDS011;23099;42.636;23.198;2023-09-19T03:13:33;18.40;;;9.00;;
37205;SDS011;23099;42.636;23.198;2023-09-19T03:16:01;13.57;;;7.82;;
37205;SDS011;23099;42.636;23.198;2023-09-19T03:18:30;12.82;;;7.65;;
37205;SDS011;23099;42.636;23.198;2023-09-19T03:20:58;13.67;;;7.47;;
37205;SDS011;23099;42.636;23.198;2023-09-19T03:23:26;12.00;;;7.65;;
37205;SDS011;23099;42.636;23.198;2023-09-19T03:25:53;12.82;;;7.82;;
37205;SDS011;23099;42.636;23.198;2023-09-19T03:28:22;14.23;;;7.85;;
37205;SDS011;23099;42.636;23.198;2023-09-19T03:30:57;12.35;;;7.38;;
37205;SDS011;23099;42.636;23.198;2023-09-19T03:33:25;14.30;;;7.43;;
37205;SDS011;23099;42.636;23.198;2023-09-19T03:35:52;14.60;;;9.13;;
37205;SDS011;23099;42.636;23.198;2023-09-19T03:38:19;11.85;;;7.53;;
37205;SDS011;23099;42.636;23.198;2023-09-19T03:40:46;14.48;;;8.05;;
37205;SDS011;23099;42.636;23.198;2023-09-19T03:43:13;13.30;;;7.55;;
37205;SDS011;23099;42.636;23.198;2023-09-19T03:45:41;13.98;;;7.78;;
37205;SDS011;23099;42.636;23.198;2023-09-19T03:48:08;13.07;;;7.38;;
37205;SDS011;23099;42.636;23.198;2023-09-19T03:50:35;15.88;;;8.27;;
37205;SDS011;23099;42.636;23.198;2023-09-19T03:53:02;15.65;;;8.02;;
37205;SDS011;23099;42.636;23.198;2023-09-19T03:55:29;13.13;;;7.28;;
37205;SDS011;23099;42.636;23.198;2023-09-19T03:57:56;12.85;;;7.32;;
37205;SDS011;23099;42.636;23.198;2023-09-19T04:00:22;10.90;;;6.50;;
37205;SDS011;23099;42.636;23.198;2023-09-19T04:02:53;10.77;;;6.30;;
37205;SDS011;23099;42.636;23.198;2023-09-19T04:05:21;11.52;;;6.20;;
37205;SDS011;23099;42.636;23.198;2023-09-19T04:07:48;13.77;;;7.78;;
37205;SDS011;23099;42.636;23.198;2023-09-19T04:10:15;11.57;;;6.75;;
37205;SDS011;23099;42.636;23.198;2023-09-19T04:12:50;14.07;;;7.95;;
37205;SDS011;23099;42.636;23.198;2023-09-19T04:15:17;13.30;;;7.22;;
37205;SDS011;23099;42.636;23.198;2023-09-19T04:17:43;13.68;;;8.75;;
37205;SDS011;23099;42.636;23.198;2023-09-19T04:20:12;13.32;;;8.30;;
37205;SDS011;23099;42.636;23.198;2023-09-19T04:22:38;11.93;;;8.05;;
37205;SDS011;23099;42.636;23.198;2023-09-19T04:25:05;16.00;;;8.95;;
37205;SDS011;23099;42.636;23.198;2023-09-19T04:27:33;12.48;;;8.30;;
37205;SDS011;23099;42.636;23.198;2023-09-19T04:30:00;13.68;;;8.15;;
37205;SDS011;23099;42.636;23.198;2023-09-19T04:32:28;16.85;;;8.70;;
37205;SDS011;23099;42.636;23.198;2023-09-19T04:34:57;13.70;;;8.57;;
37205;SDS011;23099;42.636;23.198;2023-09-19T04:37:28;15.80;;;8.27;;
37205;SDS011;23099;42.636;23.198;2023-09-19T04:39:55;13.93;;;9.45;;
37205;SDS011;23099;42.636;23.198;2023-09-19T04:42:22;14.60;;;8.73;;
37205;SDS011;23099;42.636;23.198;2023-09-19T04:44:49;14.98;;;9.15;;
37205;SDS011;23099;42.636;23.198;2023-09-19T04:47:18;13.93;;;8.95;;
37205;SDS011;23099;42.636;23.198;2023-09-19T04:49:46;17.77;;;9.10;;
37205;SDS011;23099;42.636;23.198;2023-09-19T04:52:13;15.85;;;9.75;;
37205;SDS011;23099;42.636;23.198;2023-09-19T04:54:42;14.05;;;9.48;;
37205;SDS011;23099;42.636;23.198;2023-09-19T04:57:08;14.82;;;9.27;;
37205;SDS011;23099;42.636;23.198;2023-09-19T04:59:35;18.08;;;8.60;;
37205;SDS011;23099;42.636;23.198;2023-09-19T05:02:02;13.77;;;8.57;;
37205;SDS011;23099;42.636;23.198;2023-09-19T05:04:29;13.88;;;7.93;;
37205;SDS011;23099;42.636;23.198;2023-09-19T05:06:57;16.23;;;8.48;;
37205;SDS011;23099;42.636;23.198;2023-09-19T05:09:26;13.52;;;7.80;;
37205;SDS011;23099;42.636;23.198;2023-09-19T05:11:54;15.45;;;7.57;;
37205;SDS011;23099;42.636;23.198;2023-09-19T05:14:21;11.95;;;7.28;;
37205;SDS011;23099;42.636;23.198;2023-09-19T05:16:48;12.48;;;6.90;;
37205;SDS011;23099;42.636;23.198;2023-09-19T05:19:15;11.55;;;7.25;;
37205;SDS011;23099;42.636;23.198;2023-09-19T05:21:42;13.10;;;7.05;;
37205;SDS011;23099;42.636;23.198;2023-09-19T05:24:08;11.75;;;6.40;;
37205;SDS011;23099;42.636;23.198;2023-09-19T05:26:36;15.40;;;6.85;;
37205;SDS011;23099;42.636;23.198;2023-09-19T05:29:04;12.55;;;6.70;;
37205;SDS011;23099;42.636;23.198;2023-09-19T05:31:33;10.35;;;6.13;;
37205;SDS011;23099;42.636;23.198;2023-09-19T05:34:01;13.70;;;6.30;;
37205;SDS011;23099;42.636;23.198;2023-09-19T05:36:28;12.65;;;6.57;;
37205;SDS011;23099;42.636;23.198;2023-09-19T05:38:55;11.13;;;6.45;;
37205;SDS011;23099;42.636;23.198;2023-09-19T05:41:22;9.93;;;5.95;;
37205;SDS011;23099;42.636;23.198;2023-09-19T05:43:49;11.30;;;5.95;;
37205;SDS011;23099;42.636;23.198;2023-09-19T05:46:17;10.63;;;5.65;;
37205;SDS011;23099;42.636;23.198;2023-09-19T05:48:44;12.68;;;6.47;;
37205;SDS011;23099;42.636;23.198;2023-09-19T05:51:15;13.07;;;5.97;;
37205;SDS011;23099;42.636;23.198;2023-09-19T05:53:43;11.88;;;6.38;;
37205;SDS011;23099;42.636;23.198;2023-09-19T05:56:09;10.20;;;6.03;;
37205;SDS011;23099;42.636;23.198;2023-09-19T05:58:36;11.80;;;6.30;;
37205;SDS011;23099;42.636;23.198;2023-09-19T06:01:03;11.20;;;5.32;;
37205;SDS011;23099;42.636;23.198;2023-09-19T06:03:33;10.05;;;5.30;;
37205;SDS011;23099;42.636;23.198;2023-09-19T06:06:00;9.85;;;5.93;;
37205;SDS011;23099;42.636;23.198;2023-09-19T06:08:27;9.85;;;5.40;;
37205;SDS011;23099;42.636;23.198;2023-09-19T06:10:56;11.80;;;6.03;;
37205;SDS011;23099;42.636;23.198;2023-09-19T06:13:23;11.80;;;5.85;;
37205;SDS011;23099;42.636;23.198;2023-09-19T06:15:51;11.02;;;6.40;;
37205;SDS011;23099;42.636;23.198;2023-09-19T06:18:19;10.63;;;6.27;;
37205;SDS011;23099;42.636;23.198;2023-09-19T06:20:47;10.35;;;5.60;;
37205;SDS011;23099;42.636;23.198;2023-09-19T06:23:16;12.68;;;5.60;;
37205;SDS011;23099;42.636;23.198;2023-09-19T06:25:45;10.77;;;6.03;;
37205;SDS011;23099;42.636;23.198;2023-09-19T06:28:12;12.27;;;5.80;;
37205;SDS011;23099;42.636;23.198;2023-09-19T06:30:39;12.20;;;5.72;;
37205;SDS011;23099;42.636;23.198;2023-09-19T06:33:07;13.02;;;6.15;;
37205;SDS011;23099;42.636;23.198;2023-09-19T06:35:33;10.25;;;6.00;;
37205;SDS011;23099;42.636;23.198;2023-09-19T06:38:03;11.77;;;6.57;;
37205;SDS011;23099;42.636;23.198;2023-09-19T06:40:30;11.65;;;6.47;;
37205;SDS011;23099;42.636;23.198;2023-09-19T06:42:57;12.63;;;6.45;;
37205;SDS011;23099;42.636;23.198;2023-09-19T06:45:27;16.80;;;6.97;;
37205;SDS011;23099;42.636;23.198;2023-09-19T06:47:54;14.50;;;7.30;;
37205;SDS011;23099;42.636;23.198;2023-09-19T06:50:22;11.13;;;6.18;;
37205;SDS011;23099;42.636;23.198;2023-09-19T06:52:50;11.52;;;7.63;;
37205;SDS011;23099;42.636;23.198;2023-09-19T06:55:20;11.40;;;6.72;;
37205;SDS011;23099;42.636;23.198;2023-09-19T06:57:50;15.10;;;6.93;;
37205;SDS011;23099;42.636;23.198;2023-09-19T07:00:19;12.70;;;7.20;;
37205;SDS011;23099;42.636;23.198;2023-09-19T07:02:54;13.45;;;6.78;;
37205;SDS011;23099;42.636;23.198;2023-09-19T07:05:22;15.30;;;6.85;;
37205;SDS011;23099;42.636;23.198;2023-09-19T07:07:50;12.35;;;6.47;;
37205;SDS011;23099;42.636;23.198;2023-09-19T07:10:16;15.82;;;6.85;;
37205;SDS011;23099;42.636;23.198;2023-09-19T07:12:46;16.65;;;7.05;;
37205;SDS011;23099;42.636;23.198;2023-09-19T07:15:13;15.43;;;6.80;;
37205;SDS011;23099;42.636;23.198;2023-09-19T07:17:40;10.90;;;6.10;;
37205;SDS011;23099;42.636;23.198;2023-09-19T07:20:07;15.65;;;6.25;;
37205;SDS011;23099;42.636;23.198;2023-09-19T07:22:35;14.55;;;6.82;;
37205;SDS011;23099;42.636;23.198;2023-09-19T07:25:04;9.57;;;5.90;;
37205;SDS011;23099;42.636;23.198;2023-09-19T07:27:31;14.47;;;6.60;;
37205;SDS011;23099;42.636;23.198;2023-09-19T07:30:00;14.57;;;6.78;;
37205;SDS011;23099;42.636;23.198;2023-09-19T07:34:53;13.15;;;5.93;;
37205;SDS011;23099;42.636;23.198;2023-09-19T07:37:20;11.48;;;6.35;;
37205;SDS011;23099;42.636;23.198;2023-09-19T07:39:47;13.40;;;6.68;;
37205;SDS011;23099;42.636;23.198;2023-09-19T07:42:14;13.63;;;7.05;;
37205;SDS011;23099;42.636;23.198;2023-09-19T07:44:43;15.75;;;7.10;;
37205;SDS011;23099;42.636;23.198;2023-09-19T07:47:13;14.63;;;7.10;;
37205;SDS011;23099;42.636;23.198;2023-09-19T07:52:07;14.07;;;6.95;;
37205;SDS011;23099;42.636;23.198;2023-09-19T07:54:34;13.00;;;7.22;;
37205;SDS011;23099;42.636;23.198;2023-09-19T07:57:01;13.85;;;7.47;;
37205;SDS011;23099;42.636;23.198;2023-09-19T07:59:29;12.90;;;7.25;;
37205;SDS011;23099;42.636;23.198;2023-09-19T08:01:56;15.40;;;7.88;;
37205;SDS011;23099;42.636;23.198;2023-09-19T08:04:24;13.43;;;7.00;;
37205;SDS011;23099;42.636;23.198;2023-09-19T08:06:51;14.52;;;7.25;;
37205;SDS011;23099;42.636;23.198;2023-09-19T08:09:19;14.15;;;7.63;;
37205;SDS011;23099;42.636;23.198;2023-09-19T08:11:46;15.57;;;7.47;;
37205;SDS011;23099;42.636;23.198;2023-09-19T08:14:13;16.23;;;7.70;;
37205;SDS011;23099;42.636;23.198;2023-09-19T08:16:40;18.08;;;8.18;;
37205;SDS011;23099;42.636;23.198;2023-09-19T08:21:37;12.20;;;7.18;;
37205;SDS011;23099;42.636;23.198;2023-09-19T08:24:04;14.60;;;7.38;;
37205;SDS011;23099;42.636;23.198;2023-09-19T08:26:31;16.52;;;6.78;;
37205;SDS011;23099;42.636;23.198;2023-09-19T08:28:58;14.63;;;7.28;;
37205;SDS011;23099;42.636;23.198;2023-09-19T08:31:29;13.15;;;6.78;;
37205;SDS011;23099;42.636;23.198;2023-09-19T08:33:56;11.90;;;6.70;;
37205;SDS011;23099;42.636;23.198;2023-09-19T08:36:23;16.80;;;6.65;;
37205;SDS011;23099;42.636;23.198;2023-09-19T08:38:51;14.13;;;6.70;;
37205;SDS011;23099;42.636;23.198;2023-09-19T08:41:18;15.32;;;6.82;;
37205;SDS011;23099;42.636;23.198;2023-09-19T08:43:44;11.23;;;5.90;;
37205;SDS011;23099;42.636;23.198;2023-09-19T08:46:14;15.50;;;6.88;;
37205;SDS011;23099;42.636;23.198;2023-09-19T08:48:45;14.88;;;6.68;;
37205;SDS011;23099;42.636;23.198;2023-09-19T08:51:18;12.02;;;6.70;;
37205;SDS011;23099;42.636;23.198;2023-09-19T08:53:51;13.70;;;6.57;;
37205;SDS011;23099;42.636;23.198;2023-09-19T08:56:21;13.50;;;6.60;;
37205;SDS011;23099;42.636;23.198;2023-09-19T08:58:53;12.55;;;6.70;;
37205;SDS011;23099;42.636;23.198;2023-09-19T09:01:23;13.40;;;6.32;;
37205;SDS011;23099;42.636;23.198;2023-09-19T09:03:53;16.67;;;6.75;;
37205;SDS011;23099;42.636;23.198;2023-09-19T09:06:22;12.93;;;6.53;;
37205;SDS011;23099;42.636;23.198;2023-09-19T09:08:51;19.08;;;6.88;;
37205;SDS011;23099;42.636;23.198;2023-09-19T09:11:18;13.65;;;6.38;;
37205;SDS011;23099;42.636;23.198;2023-09-19T09:13:45;11.93;;;5.90;;
37205;SDS011;23099;42.636;23.198;2023-09-19T09:16:13;12.70;;;6.38;;
37205;SDS011;23099;42.636;23.198;2023-09-19T09:18:43;12.23;;;6.22;;
37205;SDS011;23099;42.636;23.198;2023-09-19T09:21:10;12.20;;;6.03;;
37205;SDS011;23099;42.636;23.198;2023-09-19T09:23:40;14.93;;;6.72;;
37205;SDS011;23099;42.636;23.198;2023-09-19T09:26:08;14.68;;;6.35;;
37205;SDS011;23099;42.636;23.198;2023-09-19T09:28:35;10.68;;;6.30;;
37205;SDS011;23099;42.636;23.198;2023-09-19T09:31:12;15.27;;;6.47;;
37205;SDS011;23099;42.636;23.198;2023-09-19T09:33:52;12.77;;;6.97;;
37205;SDS011;23099;42.636;23.198;2023-09-19T09:36:31;14.32;;;6.72;;
37205;SDS011;23099;42.636;23.198;2023-09-19T09:39:00;15.77;;;5.97;;
37205;SDS011;23099;42.636;23.198;2023-09-19T09:41:42;12.60;;;5.70;;
37205;SDS011;23099;42.636;23.198;2023-09-19T09:46:42;11.05;;;6.20;;
37205;SDS011;23099;42.636;23.198;2023-09-19T09:49:47;11.27;;;6.45;;
37205;SDS011;23099;42.636;23.198;2023-09-19T09:52:19;16.10;;;6.95;;
37205;SDS011;23099;42.636;23.198;2023-09-19T09:54:58;16.73;;;6.72;;
37205;SDS011;23099;42.636;23.198;2023-09-19T09:57:27;13.93;;;6.32;;
37205;SDS011;23099;42.636;23.198;2023-09-19T09:59:55;13.30;;;5.60;;
37205;SDS011;23099;42.636;23.198;2023-09-19T10:02:25;15.23;;;6.18;;
37205;SDS011;23099;42.636;23.198;2023-09-19T10:04:58;18.73;;;5.88;;
37205;SDS011;23099;42.636;23.198;2023-09-19T10:07:34;11.35;;;6.60;;
37205;SDS011;23099;42.636;23.198;2023-09-19T10:10:06;13.93;;;6.53;;
37205;SDS011;23099;42.636;23.198;2023-09-19T10:12:43;14.73;;;5.97;;
37205;SDS011;23099;42.636;23.198;2023-09-19T10:15:15;11.20;;;5.55;;
37205;SDS011;23099;42.636;23.198;2023-09-19T10:17:45;12.40;;;5.55;;
37205;SDS011;23099;42.636;23.198;2023-09-19T10:20:13;11.23;;;5.60;;
37205;SDS011;23099;42.636;23.198;2023-09-19T10:23:04;14.55;;;5.95;;
37205;SDS011;23099;42.636;23.198;2023-09-19T10:25:34;15.63;;;6.30;;
37205;SDS011;23099;42.636;23.198;2023-09-19T10:28:05;12.70;;;6.40;;
37205;SDS011;23099;42.636;23.198;2023-09-19T10:30:36;15.60;;;5.97;;
37205;SDS011;23099;42.636;23.198;2023-09-19T10:33:09;15.55;;;6.50;;
37205;SDS011;23099;42.636;23.198;2023-09-19T10:35:37;15.55;;;6.57;;
37205;SDS011;23099;42.636;23.198;2023-09-19T10:38:06;15.05;;;6.22;;
37205;SDS011;23099;42.636;23.198;2023-09-19T10:40:35;16.83;;;5.80;;
37205;SDS011;23099;42.636;23.198;2023-09-19T10:43:11;14.25;;;5.43;;
37205;SDS011;23099;42.636;23.198;2023-09-19T10:45:38;10.65;;;5.25;;
37205;SDS011;23099;42.636;23.198;2023-09-19T10:48:06;16.45;;;5.68;;
37205;SDS011;23099;42.636;23.198;2023-09-19T10:50:35;16.77;;;5.00;;
37205;SDS011;23099;42.636;23.198;2023-09-19T10:53:10;13.25;;;5.75;;
37205;SDS011;23099;42.636;23.198;2023-09-19T10:55:38;13.13;;;5.30;;
37205;SDS011;23099;42.636;23.198;2023-09-19T10:58:05;12.60;;;5.55;;
37205;SDS011;23099;42.636;23.198;2023-09-19T11:00:52;15.55;;;5.28;;
37205;SDS011;23099;42.636;23.198;2023-09-19T11:03:20;14.43;;;5.30;;
37205;SDS011;23099;42.636;23.198;2023-09-19T11:06:05;11.77;;;5.75;;
37205;SDS011;23099;42.636;23.198;2023-09-19T11:11:42;14.02;;;6.20;;
37205;SDS011;23099;42.636;23.198;2023-09-19T11:14:14;14.65;;;5.15;;
37205;SDS011;23099;42.636;23.198;2023-09-19T11:20:21;15.32;;;5.50;;
37205;SDS011;23099;42.636;23.198;2023-09-19T11:23:17;13.82;;;5.60;;
37205;SDS011;23099;42.636;23.198;2023-09-19T11:25:44;13.93;;;5.70;;
37205;SDS011;23099;42.636;23.198;2023-09-19T11:40:14;12.10;;;5.90;;
37205;SDS011;23099;42.636;23.198;2023-09-19T11:42:42;13.27;;;5.72;;
37205;SDS011;23099;42.636;23.198;2023-09-19T11:48:23;13.52;;;5.90;;
37205;SDS011;23099;42.636;23.198;2023-09-19T11:50:51;14.98;;;6.85;;
37205;SDS011;23099;42.636;23.198;2023-09-19T11:53:18;12.73;;;5.60;;
37205;SDS011;23099;42.636;23.198;2023-09-19T11:55:47;17.13;;;5.95;;
37205;SDS011;23099;42.636;23.198;2023-09-19T11:58:15;13.40;;;5.45;;
37205;SDS011;23099;42.636;23.198;2023-09-19T12:03:11;18.67;;;5.60;;
37205;SDS011;23099;42.636;23.198;2023-09-19T12:05:39;17.85;;;5.95;;
37205;SDS011;23099;42.636;23.198;2023-09-19T12:08:06;12.05;;;5.18;;
37205;SDS011;23099;42.636;23.198;2023-09-19T12:10:34;13.80;;;5.68;;
37205;SDS011;23099;42.636;23.198;2023-09-19T12:13:16;13.18;;;5.18;;
37205;SDS011;23099;42.636;23.198;2023-09-19T12:15:42;14.48;;;5.72;;
37205;SDS011;23099;42.636;23.198;2023-09-19T12:18:10;14.70;;;5.57;;
37205;SDS011;23099;42.636;23.198;2023-09-19T12:20:51;15.25;;;6.22;;
37205;SDS011;23099;42.636;23.198;2023-09-19T12:25:46;14.82;;;4.90;;
37205;SDS011;23099;42.636;23.198;2023-09-19T12:28:18;15.68;;;5.18;;
37205;SDS011;23099;42.636;23.198;2023-09-19T12:30:46;10.77;;;5.20;;
37205;SDS011;23099;42.636;23.198;2023-09-19T12:33:15;13.43;;;5.40;;
37205;SDS011;23099;42.636;23.198;2023-09-19T12:35:44;13.15;;;4.85;;
37205;SDS011;23099;42.636;23.198;2023-09-19T12:38:10;13.68;;;5.18;;
37205;SDS011;23099;42.636;23.198;2023-09-19T12:40:38;10.93;;;5.22;;
37205;SDS011;23099;42.636;23.198;2023-09-19T12:43:07;17.35;;;5.47;;
37205;SDS011;23099;42.636;23.198;2023-09-19T12:45:42;14.43;;;4.78;;
37205;SDS011;23099;42.636;23.198;2023-09-19T12:48:20;15.02;;;4.35;;
37205;SDS011;23099;42.636;23.198;2023-09-19T12:51:00;14.05;;;5.38;;
37205;SDS011;23099;42.636;23.198;2023-09-19T12:53:31;10.85;;;4.38;;
37205;SDS011;23099;42.636;23.198;2023-09-19T12:56:01;10.00;;;5.13;;
37205;SDS011;23099;42.636;23.198;2023-09-19T12:58:31;11.50;;;4.60;;
37205;SDS011;23099;42.636;23.198;2023-09-19T13:01:01;10.93;;;4.00;;
37205;SDS011;23099;42.636;23.198;2023-09-19T13:03:30;13.30;;;4.93;;
37205;SDS011;23099;42.636;23.198;2023-09-19T13:06:00;10.20;;;4.60;;
37205;SDS011;23099;42.636;23.198;2023-09-19T13:08:29;10.05;;;5.65;;
37205;SDS011;23099;42.636;23.198;2023-09-19T13:11:10;12.50;;;4.20;;
37205;SDS011;23099;42.636;23.198;2023-09-19T13:13:39;11.55;;;4.32;;
37205;SDS011;23099;42.636;23.198;2023-09-19T13:16:08;8.80;;;4.55;;
37205;SDS011;23099;42.636;23.198;2023-09-19T13:18:42;11.98;;;4.47;;
37205;SDS011;23099;42.636;23.198;2023-09-19T13:21:15;12.25;;;4.55;;
37205;SDS011;23099;42.636;23.198;2023-09-19T13:23:48;11.13;;;4.55;;
37205;SDS011;23099;42.636;23.198;2023-09-19T13:26:16;13.20;;;4.28;;
37205;SDS011;23099;42.636;23.198;2023-09-19T13:28:43;11.15;;;4.45;;
37205;SDS011;23099;42.636;23.198;2023-09-19T13:31:11;10.85;;;4.28;;
37205;SDS011;23099;42.636;23.198;2023-09-19T13:33:42;11.93;;;5.05;;
37205;SDS011;23099;42.636;23.198;2023-09-19T13:36:10;12.02;;;5.15;;
37205;SDS011;23099;42.636;23.198;2023-09-19T13:38:37;9.45;;;4.57;;
37205;SDS011;23099;42.636;23.198;2023-09-19T13:41:04;10.82;;;4.70;;
37205;SDS011;23099;42.636;23.198;2023-09-19T13:43:31;10.52;;;4.32;;
37205;SDS011;23099;42.636;23.198;2023-09-19T13:45:58;10.48;;;4.70;;
37205;SDS011;23099;42.636;23.198;2023-09-19T13:48:26;10.27;;;4.20;;
37205;SDS011;23099;42.636;23.198;2023-09-19T13:50:55;10.00;;;4.13;;
37205;SDS011;23099;42.636;23.198;2023-09-19T13:53:22;9.25;;;4.20;;
37205;SDS011;23099;42.636;23.198;2023-09-19T13:55:51;9.27;;;3.80;;
37205;SDS011;23099;42.636;23.198;2023-09-19T13:58:17;10.05;;;4.10;;
37205;SDS011;23099;42.636;23.198;2023-09-19T14:00:44;11.40;;;4.38;;
37205;SDS011;23099;42.636;23.198;2023-09-19T14:03:11;10.43;;;4.20;;
37205;SDS011;23099;42.636;23.198;2023-09-19T14:05:39;10.10;;;4.10;;
37205;SDS011;23099;42.636;23.198;2023-09-19T14:08:07;10.15;;;4.03;;
37205;SDS011;23099;42.636;23.198;2023-09-19T14:10:34;15.18;;;3.97;;
37205;SDS011;23099;42.636;23.198;2023-09-19T14:13:01;16.17;;;3.78;;
37205;SDS011;23099;42.636;23.198;2023-09-19T14:15:28;8.55;;;4.35;;
37205;SDS011;23099;42.636;23.198;2023-09-19T14:18:00;11.60;;;4.75;;
37205;SDS011;23099;42.636;23.198;2023-09-19T14:20:27;11.23;;;3.88;;
37205;SDS011;23099;42.636;23.198;2023-09-19T14:22:55;8.65;;;3.85;;
37205;SDS011;23099;42.636;23.198;2023-09-19T14:25:23;8.65;;;3.85;;
37205;SDS011;23099;42.636;23.198;2023-09-19T14:27:50;9.45;;;4.45;;
37205;SDS011;23099;42.636;23.198;2023-09-19T14:30:17;10.30;;;4.20;;
37205;SDS011;23099;42.636;23.198;2023-09-19T14:32:44;12.52;;;3.70;;
37205;SDS011;23099;42.636;23.198;2023-09-19T14:35:10;9.88;;;3.97;;
37205;SDS011;23099;42.636;23.198;2023-09-19T14:37:40;10.13;;;3.67;;
37205;SDS011;23099;42.636;23.198;2023-09-19T14:40:08;12.00;;;4.03;;
37205;SDS011;23099;42.636;23.198;2023-09-19T14:42:38;8.60;;;4.18;;
37205;SDS011;23099;42.636;23.198;2023-09-19T14:45:05;8.93;;;4.00;;
37205;SDS011;23099;42.636;23.198;2023-09-19T14:47:33;10.55;;;4.15;;
37205;SDS011;23099;42.636;23.198;2023-09-19T14:50:00;9.57;;;3.42;;
37205;SDS011;23099;42.636;23.198;2023-09-19T14:52:27;9.73;;;3.60;;
37205;SDS011;23099;42.636;23.198;2023-09-19T14:54:54;8.60;;;4.10;;
37205;SDS011;23099;42.636;23.198;2023-09-19T14:57:22;8.88;;;3.90;;
37205;SDS011;23099;42.636;23.198;2023-09-19T14:59:49;11.75;;;3.75;;
37205;SDS011;23099;42.636;23.198;2023-09-19T15:02:17;8.63;;;4.37;;
37205;SDS011;23099;42.636;23.198;2023-09-19T15:04:44;10.95;;;4.32;;
37205;SDS011;23099;42.636;23.198;2023-09-19T15:07:11;9.18;;;4.20;;
37205;SDS011;23099;42.636;23.198;2023-09-19T15:09:39;11.13;;;4.05;;
37205;SDS011;23099;42.636;23.198;2023-09-19T15:12:06;9.18;;;3.38;;
37205;SDS011;23099;42.636;23.198;2023-09-19T15:14:35;11.50;;;4.03;;
37205;SDS011;23099;42.636;23.198;2023-09-19T15:17:01;10.57;;;4.25;;